sensor_id;sensor_type;location;lat;lon;timestamp;P1;durP1;ratioP1;P2;durP2;ratioP2
6987;SDS011;3534;49.960;8.018;2023-07-13T00:02:23;7.80;;;1.60;;
6987;SDS011;3534;49.960;8.018;2023-07-13T00:04:51;2.60;;;1.20;;
6987;SDS011;3534;49.960;8.018;2023-07-13T00:07:18;4.53;;;1.93;;
6987;SDS011;3534;49.960;8.018;2023-07-13T00:09:45;5.60;;;2.20;;
6987;SDS011;3534;49.960;8.018;2023-07-13T00:12:22;1.93;;;1.63;;
6987;SDS011;3534;49.960;8.018;2023-07-13T00:14:52;5.17;;;1.73;;
6987;SDS011;3534;49.960;8.018;2023-07-13T00:17:18;3.27;;;1.57;;
6987;SDS011;3534;49.960;8.018;2023-07-13T00:19:45;2.20;;;1.50;;
6987;SDS011;3534;49.960;8.018;2023-07-13T00:22:12;3.60;;;1.80;;
6987;SDS011;3534;49.960;8.018;2023-07-13T00:24:38;3.03;;;1.20;;
6987;SDS011;3534;49.960;8.018;2023-07-13T00:27:06;3.73;;;1.60;;
6987;SDS011;3534;49.960;8.018;2023-07-13T00:29:34;5.07;;;1.60;;
6987;SDS011;3534;49.960;8.018;2023-07-13T00:32:03;3.83;;;1.80;;
6987;SDS011;3534;49.960;8.018;2023-07-13T00:34:30;1.93;;;1.40;;
6987;SDS011;3534;49.960;8.018;2023-07-13T00:36:57;5.13;;;1.77;;
6987;SDS011;3534;49.960;8.018;2023-07-13T00:39:24;3.27;;;1.30;;
6987;SDS011;3534;49.960;8.018;2023-07-13T00:41:51;2.40;;;1.27;;
6987;SDS011;3534;49.960;8.018;2023-07-13T00:44:18;3.20;;;1.40;;
6987;SDS011;3534;49.960;8.018;2023-07-13T00:46:46;2.20;;;1.10;;
6987;SDS011;3534;49.960;8.018;2023-07-13T00:49:15;4.70;;;1.60;;
6987;SDS011;3534;49.960;8.018;2023-07-13T00:51:44;3.60;;;1.23;;
6987;SDS011;3534;49.960;8.018;2023-07-13T00:54:16;4.20;;;1.37;;
6987;SDS011;3534;49.960;8.018;2023-07-13T00:56:47;2.77;;;1.60;;
6987;SDS011;3534;49.960;8.018;2023-07-13T00:59:17;4.53;;;1.80;;
6987;SDS011;3534;49.960;8.018;2023-07-13T01:01:45;3.80;;;1.77;;
6987;SDS011;3534;49.960;8.018;2023-07-13T01:04:12;5.80;;;1.60;;
6987;SDS011;3534;49.960;8.018;2023-07-13T01:06:41;2.77;;;2.17;;
6987;SDS011;3534;49.960;8.018;2023-07-13T01:09:09;4.40;;;1.50;;
6987;SDS011;3534;49.960;8.018;2023-07-13T01:11:37;1.87;;;1.43;;
6987;SDS011;3534;49.960;8.018;2023-07-13T01:14:04;1.77;;;1.30;;
6987;SDS011;3534;49.960;8.018;2023-07-13T01:16:32;2.43;;;1.90;;
6987;SDS011;3534;49.960;8.018;2023-07-13T01:19:00;3.70;;;1.93;;
6987;SDS011;3534;49.960;8.018;2023-07-13T01:21:31;3.37;;;1.47;;
6987;SDS011;3534;49.960;8.018;2023-07-13T01:23:59;2.70;;;1.27;;
6987;SDS011;3534;49.960;8.018;2023-07-13T01:26:27;3.10;;;1.37;;
6987;SDS011;3534;49.960;8.018;2023-07-13T01:28:54;4.97;;;1.57;;
6987;SDS011;3534;49.960;8.018;2023-07-13T01:31:22;5.27;;;1.40;;
6987;SDS011;3534;49.960;8.018;2023-07-13T01:33:48;2.23;;;1.40;;
6987;SDS011;3534;49.960;8.018;2023-07-13T01:36:15;9.07;;;1.27;;
6987;SDS011;3534;49.960;8.018;2023-07-13T01:38:43;4.50;;;1.40;;
6987;SDS011;3534;49.960;8.018;2023-07-13T01:41:10;4.50;;;1.33;;
6987;SDS011;3534;49.960;8.018;2023-07-13T01:43:37;2.90;;;1.10;;
6987;SDS011;3534;49.960;8.018;2023-07-13T01:46:04;1.40;;;0.97;;
6987;SDS011;3534;49.960;8.018;2023-07-13T01:48:30;2.50;;;1.20;;
6987;SDS011;3534;49.960;8.018;2023-07-13T01:50:57;3.47;;;1.80;;
6987;SDS011;3534;49.960;8.018;2023-07-13T01:53:24;2.03;;;1.17;;
6987;SDS011;3534;49.960;8.018;2023-07-13T01:55:52;2.73;;;1.50;;
6987;SDS011;3534;49.960;8.018;2023-07-13T01:58:19;1.87;;;1.20;;
6987;SDS011;3534;49.960;8.018;2023-07-13T02:00:47;3.07;;;1.87;;
6987;SDS011;3534;49.960;8.018;2023-07-13T02:03:14;3.90;;;1.23;;
6987;SDS011;3534;49.960;8.018;2023-07-13T02:05:43;2.70;;;1.47;;
6987;SDS011;3534;49.960;8.018;2023-07-13T02:08:10;2.63;;;1.50;;
6987;SDS011;3534;49.960;8.018;2023-07-13T02:10:37;2.20;;;1.60;;
6987;SDS011;3534;49.960;8.018;2023-07-13T02:13:05;5.33;;;1.30;;
6987;SDS011;3534;49.960;8.018;2023-07-13T02:15:32;4.20;;;1.43;;
6987;SDS011;3534;49.960;8.018;2023-07-13T02:17:59;2.40;;;1.33;;
6987;SDS011;3534;49.960;8.018;2023-07-13T02:20:26;1.43;;;1.33;;
6987;SDS011;3534;49.960;8.018;2023-07-13T02:22:53;3.70;;;1.57;;
6987;SDS011;3534;49.960;8.018;2023-07-13T02:25:19;2.60;;;1.20;;
6987;SDS011;3534;49.960;8.018;2023-07-13T02:27:46;3.00;;;1.53;;
6987;SDS011;3534;49.960;8.018;2023-07-13T02:30:14;7.67;;;1.63;;
6987;SDS011;3534;49.960;8.018;2023-07-13T02:32:41;3.37;;;1.50;;
6987;SDS011;3534;49.960;8.018;2023-07-13T02:35:08;2.07;;;1.90;;
6987;SDS011;3534;49.960;8.018;2023-07-13T02:37:35;2.40;;;1.53;;
6987;SDS011;3534;49.960;8.018;2023-07-13T02:40:02;3.10;;;1.53;;
6987;SDS011;3534;49.960;8.018;2023-07-13T02:42:33;6.03;;;1.70;;
6987;SDS011;3534;49.960;8.018;2023-07-13T02:45:00;3.20;;;1.40;;
6987;SDS011;3534;49.960;8.018;2023-07-13T02:47:28;3.23;;;1.23;;
6987;SDS011;3534;49.960;8.018;2023-07-13T02:49:55;2.97;;;1.30;;
6987;SDS011;3534;49.960;8.018;2023-07-13T02:52:21;4.53;;;1.67;;
6987;SDS011;3534;49.960;8.018;2023-07-13T02:54:48;2.20;;;1.67;;
6987;SDS011;3534;49.960;8.018;2023-07-13T02:57:15;5.03;;;1.70;;
6987;SDS011;3534;49.960;8.018;2023-07-13T02:59:41;4.20;;;1.63;;
6987;SDS011;3534;49.960;8.018;2023-07-13T03:02:08;2.63;;;2.00;;
6987;SDS011;3534;49.960;8.018;2023-07-13T03:04:36;2.50;;;1.53;;
6987;SDS011;3534;49.960;8.018;2023-07-13T03:07:04;3.37;;;1.30;;
6987;SDS011;3534;49.960;8.018;2023-07-13T03:09:32;4.17;;;1.90;;
6987;SDS011;3534;49.960;8.018;2023-07-13T03:11:59;7.30;;;1.80;;
6987;SDS011;3534;49.960;8.018;2023-07-13T03:14:27;2.80;;;1.47;;
6987;SDS011;3534;49.960;8.018;2023-07-13T03:16:53;6.43;;;1.87;;
6987;SDS011;3534;49.960;8.018;2023-07-13T03:19:20;5.50;;;1.90;;
6987;SDS011;3534;49.960;8.018;2023-07-13T03:21:48;2.23;;;2.03;;
6987;SDS011;3534;49.960;8.018;2023-07-13T03:24:15;2.13;;;1.57;;
6987;SDS011;3534;49.960;8.018;2023-07-13T03:26:42;4.40;;;1.73;;
6987;SDS011;3534;49.960;8.018;2023-07-13T03:29:08;3.67;;;1.87;;
6987;SDS011;3534;49.960;8.018;2023-07-13T03:31:35;1.87;;;1.77;;
6987;SDS011;3534;49.960;8.018;2023-07-13T03:34:03;3.10;;;2.47;;
6987;SDS011;3534;49.960;8.018;2023-07-13T03:36:30;2.57;;;2.00;;
6987;SDS011;3534;49.960;8.018;2023-07-13T03:39:01;2.83;;;1.80;;
6987;SDS011;3534;49.960;8.018;2023-07-13T03:41:29;3.60;;;1.63;;
6987;SDS011;3534;49.960;8.018;2023-07-13T03:43:56;3.00;;;1.70;;
6987;SDS011;3534;49.960;8.018;2023-07-13T03:46:23;3.83;;;1.63;;
6987;SDS011;3534;49.960;8.018;2023-07-13T03:48:50;1.50;;;1.27;;
6987;SDS011;3534;49.960;8.018;2023-07-13T03:51:17;3.10;;;1.73;;
6987;SDS011;3534;49.960;8.018;2023-07-13T03:53:45;1.40;;;1.30;;
6987;SDS011;3534;49.960;8.018;2023-07-13T03:56:14;6.40;;;1.40;;
6987;SDS011;3534;49.960;8.018;2023-07-13T03:58:43;5.73;;;1.50;;
6987;SDS011;3534;49.960;8.018;2023-07-13T04:01:11;4.40;;;1.90;;
6987;SDS011;3534;49.960;8.018;2023-07-13T04:03:38;3.83;;;1.43;;
6987;SDS011;3534;49.960;8.018;2023-07-13T04:06:07;2.93;;;1.90;;
6987;SDS011;3534;49.960;8.018;2023-07-13T04:08:40;5.23;;;1.90;;
6987;SDS011;3534;49.960;8.018;2023-07-13T04:11:07;1.60;;;1.40;;
6987;SDS011;3534;49.960;8.018;2023-07-13T04:13:35;3.67;;;1.43;;
6987;SDS011;3534;49.960;8.018;2023-07-13T04:16:02;6.73;;;1.63;;
6987;SDS011;3534;49.960;8.018;2023-07-13T04:18:28;3.70;;;1.77;;
6987;SDS011;3534;49.960;8.018;2023-07-13T04:20:55;3.93;;;1.40;;
6987;SDS011;3534;49.960;8.018;2023-07-13T04:23:22;4.77;;;1.60;;
6987;SDS011;3534;49.960;8.018;2023-07-13T04:25:49;1.50;;;1.10;;
6987;SDS011;3534;49.960;8.018;2023-07-13T04:28:18;1.60;;;1.43;;
6987;SDS011;3534;49.960;8.018;2023-07-13T04:30:46;3.33;;;1.60;;
6987;SDS011;3534;49.960;8.018;2023-07-13T04:33:13;3.60;;;1.50;;
6987;SDS011;3534;49.960;8.018;2023-07-13T04:35:41;9.23;;;1.87;;
6987;SDS011;3534;49.960;8.018;2023-07-13T04:38:08;2.40;;;1.20;;
6987;SDS011;3534;49.960;8.018;2023-07-13T04:40:36;4.83;;;1.30;;
6987;SDS011;3534;49.960;8.018;2023-07-13T04:43:03;2.03;;;1.20;;
6987;SDS011;3534;49.960;8.018;2023-07-13T04:45:30;5.03;;;1.20;;
6987;SDS011;3534;49.960;8.018;2023-07-13T04:47:58;4.90;;;1.40;;
6987;SDS011;3534;49.960;8.018;2023-07-13T04:50:25;4.73;;;1.07;;
6987;SDS011;3534;49.960;8.018;2023-07-13T04:52:51;3.77;;;1.33;;
6987;SDS011;3534;49.960;8.018;2023-07-13T04:55:19;2.53;;;0.90;;
6987;SDS011;3534;49.960;8.018;2023-07-13T04:57:46;2.47;;;1.40;;
6987;SDS011;3534;49.960;8.018;2023-07-13T05:00:13;3.00;;;1.03;;
6987;SDS011;3534;49.960;8.018;2023-07-13T05:02:43;4.17;;;1.30;;
6987;SDS011;3534;49.960;8.018;2023-07-13T05:05:10;3.03;;;1.30;;
6987;SDS011;3534;49.960;8.018;2023-07-13T05:07:37;2.30;;;1.07;;
6987;SDS011;3534;49.960;8.018;2023-07-13T05:10:04;3.37;;;1.30;;
6987;SDS011;3534;49.960;8.018;2023-07-13T05:12:32;2.70;;;1.20;;
6987;SDS011;3534;49.960;8.018;2023-07-13T05:14:58;4.30;;;1.20;;
6987;SDS011;3534;49.960;8.018;2023-07-13T05:17:25;15.30;;;2.30;;
6987;SDS011;3534;49.960;8.018;2023-07-13T05:19:52;4.57;;;1.47;;
6987;SDS011;3534;49.960;8.018;2023-07-13T05:22:20;2.40;;;1.33;;
6987;SDS011;3534;49.960;8.018;2023-07-13T05:24:47;5.63;;;1.30;;
6987;SDS011;3534;49.960;8.018;2023-07-13T05:27:13;5.13;;;1.10;;
6987;SDS011;3534;49.960;8.018;2023-07-13T05:29:40;2.50;;;1.10;;
6987;SDS011;3534;49.960;8.018;2023-07-13T05:32:07;2.57;;;1.50;;
6987;SDS011;3534;49.960;8.018;2023-07-13T05:34:34;9.93;;;1.23;;
6987;SDS011;3534;49.960;8.018;2023-07-13T05:37:01;2.50;;;1.00;;
6987;SDS011;3534;49.960;8.018;2023-07-13T05:39:29;4.33;;;1.47;;
6987;SDS011;3534;49.960;8.018;2023-07-13T05:41:56;23.97;;;2.97;;
6987;SDS011;3534;49.960;8.018;2023-07-13T05:44:22;9.60;;;1.67;;
6987;SDS011;3534;49.960;8.018;2023-07-13T05:46:49;4.83;;;1.30;;
6987;SDS011;3534;49.960;8.018;2023-07-13T05:49:16;3.30;;;1.50;;
6987;SDS011;3534;49.960;8.018;2023-07-13T05:51:42;6.77;;;1.50;;
6987;SDS011;3534;49.960;8.018;2023-07-13T05:54:09;3.90;;;1.23;;
6987;SDS011;3534;49.960;8.018;2023-07-13T05:56:37;3.63;;;1.47;;
6987;SDS011;3534;49.960;8.018;2023-07-13T05:59:04;8.20;;;1.87;;
6987;SDS011;3534;49.960;8.018;2023-07-13T06:01:31;6.93;;;2.00;;
6987;SDS011;3534;49.960;8.018;2023-07-13T06:03:57;8.50;;;1.60;;
6987;SDS011;3534;49.960;8.018;2023-07-13T06:06:24;3.43;;;1.37;;
6987;SDS011;3534;49.960;8.018;2023-07-13T06:08:51;7.47;;;1.50;;
6987;SDS011;3534;49.960;8.018;2023-07-13T06:11:19;25.30;;;2.80;;
6987;SDS011;3534;49.960;8.018;2023-07-13T06:13:48;31.60;;;4.67;;
6987;SDS011;3534;49.960;8.018;2023-07-13T06:16:16;25.17;;;2.57;;
6987;SDS011;3534;49.960;8.018;2023-07-13T06:18:43;26.90;;;3.00;;
6987;SDS011;3534;49.960;8.018;2023-07-13T06:21:11;32.60;;;3.60;;
6987;SDS011;3534;49.960;8.018;2023-07-13T06:23:39;55.07;;;5.07;;
6987;SDS011;3534;49.960;8.018;2023-07-13T06:26:06;20.67;;;2.03;;
6987;SDS011;3534;49.960;8.018;2023-07-13T06:28:33;13.83;;;1.97;;
6987;SDS011;3534;49.960;8.018;2023-07-13T06:31:04;24.37;;;2.73;;
6987;SDS011;3534;49.960;8.018;2023-07-13T06:33:32;13.07;;;2.70;;
6987;SDS011;3534;49.960;8.018;2023-07-13T06:35:59;7.40;;;1.37;;
6987;SDS011;3534;49.960;8.018;2023-07-13T06:38:26;1.77;;;1.00;;
6987;SDS011;3534;49.960;8.018;2023-07-13T06:40:53;2.23;;;1.30;;
6987;SDS011;3534;49.960;8.018;2023-07-13T06:43:20;4.30;;;1.40;;
6987;SDS011;3534;49.960;8.018;2023-07-13T06:45:48;2.40;;;1.27;;
6987;SDS011;3534;49.960;8.018;2023-07-13T06:48:17;3.87;;;1.30;;
6987;SDS011;3534;49.960;8.018;2023-07-13T06:50:45;9.17;;;1.53;;
6987;SDS011;3534;49.960;8.018;2023-07-13T06:53:16;9.30;;;1.10;;
6987;SDS011;3534;49.960;8.018;2023-07-13T06:55:44;5.40;;;1.83;;
6987;SDS011;3534;49.960;8.018;2023-07-13T06:58:11;4.40;;;1.00;;
6987;SDS011;3534;49.960;8.018;2023-07-13T07:00:38;3.30;;;1.13;;
6987;SDS011;3534;49.960;8.018;2023-07-13T07:03:05;2.33;;;1.00;;
6987;SDS011;3534;49.960;8.018;2023-07-13T07:05:33;5.87;;;1.13;;
6987;SDS011;3534;49.960;8.018;2023-07-13T07:08:00;4.27;;;1.23;;
6987;SDS011;3534;49.960;8.018;2023-07-13T07:10:28;10.47;;;1.90;;
6987;SDS011;3534;49.960;8.018;2023-07-13T07:12:56;4.40;;;1.10;;
6987;SDS011;3534;49.960;8.018;2023-07-13T07:15:22;5.70;;;1.30;;
6987;SDS011;3534;49.960;8.018;2023-07-13T07:17:49;2.77;;;1.10;;
6987;SDS011;3534;49.960;8.018;2023-07-13T07:20:16;1.80;;;0.80;;
6987;SDS011;3534;49.960;8.018;2023-07-13T07:22:44;2.47;;;1.00;;
6987;SDS011;3534;49.960;8.018;2023-07-13T07:25:11;6.43;;;1.00;;
6987;SDS011;3534;49.960;8.018;2023-07-13T07:27:38;3.23;;;1.10;;
6987;SDS011;3534;49.960;8.018;2023-07-13T07:30:05;3.57;;;1.03;;
6987;SDS011;3534;49.960;8.018;2023-07-13T07:32:32;4.13;;;0.90;;
6987;SDS011;3534;49.960;8.018;2023-07-13T07:34:59;3.80;;;1.30;;
6987;SDS011;3534;49.960;8.018;2023-07-13T07:37:26;3.87;;;1.20;;
6987;SDS011;3534;49.960;8.018;2023-07-13T07:39:54;3.23;;;0.87;;
6987;SDS011;3534;49.960;8.018;2023-07-13T07:42:20;4.03;;;1.20;;
6987;SDS011;3534;49.960;8.018;2023-07-13T07:44:47;2.50;;;1.10;;
6987;SDS011;3534;49.960;8.018;2023-07-13T07:47:14;2.73;;;0.87;;
6987;SDS011;3534;49.960;8.018;2023-07-13T07:49:41;5.80;;;1.23;;
6987;SDS011;3534;49.960;8.018;2023-07-13T07:52:08;3.00;;;1.00;;
6987;SDS011;3534;49.960;8.018;2023-07-13T07:54:34;3.03;;;1.00;;
6987;SDS011;3534;49.960;8.018;2023-07-13T07:57:03;8.97;;;1.03;;
6987;SDS011;3534;49.960;8.018;2023-07-13T07:59:30;5.00;;;1.07;;
6987;SDS011;3534;49.960;8.018;2023-07-13T08:01:56;3.10;;;1.03;;
6987;SDS011;3534;49.960;8.018;2023-07-13T08:04:23;2.90;;;1.53;;
6987;SDS011;3534;49.960;8.018;2023-07-13T08:06:50;3.07;;;0.90;;
6987;SDS011;3534;49.960;8.018;2023-07-13T08:09:17;1.83;;;0.70;;
6987;SDS011;3534;49.960;8.018;2023-07-13T08:11:43;2.10;;;0.90;;
6987;SDS011;3534;49.960;8.018;2023-07-13T08:14:11;5.23;;;1.13;;
6987;SDS011;3534;49.960;8.018;2023-07-13T08:16:39;5.27;;;1.03;;
6987;SDS011;3534;49.960;8.018;2023-07-13T08:19:05;2.30;;;1.00;;
6987;SDS011;3534;49.960;8.018;2023-07-13T08:21:32;2.97;;;0.97;;
6987;SDS011;3534;49.960;8.018;2023-07-13T08:23:59;2.77;;;1.03;;
6987;SDS011;3534;49.960;8.018;2023-07-13T08:26:25;4.93;;;1.53;;
6987;SDS011;3534;49.960;8.018;2023-07-13T08:28:52;3.80;;;0.80;;
6987;SDS011;3534;49.960;8.018;2023-07-13T08:31:20;4.93;;;0.83;;
6987;SDS011;3534;49.960;8.018;2023-07-13T08:33:47;3.23;;;0.80;;
6987;SDS011;3534;49.960;8.018;2023-07-13T08:36:14;8.03;;;1.30;;
6987;SDS011;3534;49.960;8.018;2023-07-13T08:38:40;3.83;;;1.00;;
6987;SDS011;3534;49.960;8.018;2023-07-13T08:41:11;1.80;;;0.80;;
6987;SDS011;3534;49.960;8.018;2023-07-13T08:43:39;9.33;;;1.03;;
6987;SDS011;3534;49.960;8.018;2023-07-13T08:46:09;2.20;;;0.80;;
6987;SDS011;3534;49.960;8.018;2023-07-13T08:48:43;3.63;;;1.20;;
6987;SDS011;3534;49.960;8.018;2023-07-13T08:51:18;2.50;;;0.63;;
6987;SDS011;3534;49.960;8.018;2023-07-13T08:53:54;2.17;;;0.80;;
6987;SDS011;3534;49.960;8.018;2023-07-13T08:56:27;3.87;;;1.20;;
6987;SDS011;3534;49.960;8.018;2023-07-13T08:58:55;1.80;;;0.87;;
6987;SDS011;3534;49.960;8.018;2023-07-13T09:01:24;1.30;;;0.73;;
6987;SDS011;3534;49.960;8.018;2023-07-13T09:03:59;3.57;;;0.97;;
6987;SDS011;3534;49.960;8.018;2023-07-13T09:06:34;2.57;;;0.80;;
6987;SDS011;3534;49.960;8.018;2023-07-13T09:09:07;3.17;;;0.83;;
6987;SDS011;3534;49.960;8.018;2023-07-13T09:11:43;1.90;;;0.80;;
6987;SDS011;3534;49.960;8.018;2023-07-13T09:14:27;8.63;;;0.90;;
6987;SDS011;3534;49.960;8.018;2023-07-13T09:17:04;2.20;;;0.93;;
6987;SDS011;3534;49.960;8.018;2023-07-13T09:19:39;1.50;;;0.93;;
6987;SDS011;3534;49.960;8.018;2023-07-13T09:22:11;2.37;;;1.00;;
6987;SDS011;3534;49.960;8.018;2023-07-13T09:24:47;4.20;;;1.10;;
6987;SDS011;3534;49.960;8.018;2023-07-13T09:27:25;1.53;;;0.80;;
6987;SDS011;3534;49.960;8.018;2023-07-13T09:29:58;2.33;;;1.00;;
6987;SDS011;3534;49.960;8.018;2023-07-13T09:32:33;1.07;;;0.60;;
6987;SDS011;3534;49.960;8.018;2023-07-13T09:35:07;3.23;;;0.83;;
6987;SDS011;3534;49.960;8.018;2023-07-13T09:37:36;4.80;;;1.00;;
6987;SDS011;3534;49.960;8.018;2023-07-13T09:40:08;2.30;;;1.00;;
6987;SDS011;3534;49.960;8.018;2023-07-13T09:42:43;4.43;;;1.13;;
6987;SDS011;3534;49.960;8.018;2023-07-13T09:45:09;1.60;;;0.83;;
6987;SDS011;3534;49.960;8.018;2023-07-13T09:47:38;2.80;;;1.00;;
6987;SDS011;3534;49.960;8.018;2023-07-13T09:50:10;2.60;;;0.83;;
6987;SDS011;3534;49.960;8.018;2023-07-13T09:52:42;0.90;;;0.80;;
6987;SDS011;3534;49.960;8.018;2023-07-13T09:55:22;1.90;;;0.87;;
6987;SDS011;3534;49.960;8.018;2023-07-13T09:57:51;1.10;;;1.00;;
6987;SDS011;3534;49.960;8.018;2023-07-13T10:00:21;4.57;;;0.83;;
6987;SDS011;3534;49.960;8.018;2023-07-13T10:03:00;1.87;;;0.80;;
6987;SDS011;3534;49.960;8.018;2023-07-13T10:05:38;3.43;;;0.70;;
6987;SDS011;3534;49.960;8.018;2023-07-13T10:08:09;2.40;;;0.80;;
6987;SDS011;3534;49.960;8.018;2023-07-13T10:10:43;1.70;;;1.07;;
6987;SDS011;3534;49.960;8.018;2023-07-13T10:13:21;1.43;;;1.03;;
6987;SDS011;3534;49.960;8.018;2023-07-13T10:15:52;3.17;;;1.20;;
6987;SDS011;3534;49.960;8.018;2023-07-13T10:18:20;4.70;;;1.60;;
6987;SDS011;3534;49.960;8.018;2023-07-13T10:20:49;4.80;;;1.33;;
6987;SDS011;3534;49.960;8.018;2023-07-13T10:23:20;1.50;;;1.00;;
6987;SDS011;3534;49.960;8.018;2023-07-13T10:25:50;2.43;;;0.90;;
6987;SDS011;3534;49.960;8.018;2023-07-13T10:28:21;4.03;;;1.43;;
6987;SDS011;3534;49.960;8.018;2023-07-13T10:30:53;3.80;;;1.20;;
6987;SDS011;3534;49.960;8.018;2023-07-13T10:33:22;0.93;;;0.77;;
6987;SDS011;3534;49.960;8.018;2023-07-13T10:35:51;2.40;;;1.03;;
6987;SDS011;3534;49.960;8.018;2023-07-13T10:38:27;6.63;;;1.27;;
6987;SDS011;3534;49.960;8.018;2023-07-13T10:40:56;1.90;;;1.20;;
6987;SDS011;3534;49.960;8.018;2023-07-13T10:43:27;2.07;;;0.80;;
6987;SDS011;3534;49.960;8.018;2023-07-13T10:45:57;1.97;;;0.97;;
6987;SDS011;3534;49.960;8.018;2023-07-13T10:48:26;2.70;;;0.90;;
6987;SDS011;3534;49.960;8.018;2023-07-13T10:50:55;1.80;;;1.40;;
6987;SDS011;3534;49.960;8.018;2023-07-13T10:53:27;1.47;;;1.17;;
6987;SDS011;3534;49.960;8.018;2023-07-13T10:55:58;3.90;;;1.33;;
6987;SDS011;3534;49.960;8.018;2023-07-13T10:58:32;3.63;;;1.37;;
6987;SDS011;3534;49.960;8.018;2023-07-13T11:01:02;1.90;;;1.07;;
6987;SDS011;3534;49.960;8.018;2023-07-13T11:03:34;5.13;;;0.97;;
6987;SDS011;3534;49.960;8.018;2023-07-13T11:06:09;2.20;;;1.20;;
6987;SDS011;3534;49.960;8.018;2023-07-13T11:08:50;2.70;;;1.30;;
6987;SDS011;3534;49.960;8.018;2023-07-13T11:14:03;5.40;;;1.73;;
6987;SDS011;3534;49.960;8.018;2023-07-13T11:16:34;3.10;;;1.00;;
6987;SDS011;3534;49.960;8.018;2023-07-13T11:22:15;1.63;;;1.00;;
6987;SDS011;3534;49.960;8.018;2023-07-13T11:24:51;2.03;;;1.00;;
6987;SDS011;3534;49.960;8.018;2023-07-13T11:27:24;1.40;;;0.80;;
6987;SDS011;3534;49.960;8.018;2023-07-13T11:30:19;1.60;;;0.83;;
6987;SDS011;3534;49.960;8.018;2023-07-13T11:32:50;1.90;;;1.00;;
6987;SDS011;3534;49.960;8.018;2023-07-13T11:35:30;1.33;;;1.17;;
6987;SDS011;3534;49.960;8.018;2023-07-13T11:38:02;3.43;;;1.23;;
6987;SDS011;3534;49.960;8.018;2023-07-13T11:40:35;1.30;;;0.80;;
6987;SDS011;3534;49.960;8.018;2023-07-13T11:43:02;2.60;;;0.90;;
6987;SDS011;3534;49.960;8.018;2023-07-13T11:45:32;5.77;;;1.07;;
6987;SDS011;3534;49.960;8.018;2023-07-13T11:47:59;1.57;;;0.93;;
6987;SDS011;3534;49.960;8.018;2023-07-13T11:50:26;2.20;;;1.00;;
6987;SDS011;3534;49.960;8.018;2023-07-13T11:52:53;1.87;;;1.00;;
6987;SDS011;3534;49.960;8.018;2023-07-13T11:55:23;2.10;;;0.90;;
6987;SDS011;3534;49.960;8.018;2023-07-13T11:57:51;1.93;;;1.20;;
6987;SDS011;3534;49.960;8.018;2023-07-13T12:00:25;1.57;;;0.80;;
6987;SDS011;3534;49.960;8.018;2023-07-13T12:02:55;2.57;;;0.83;;
6987;SDS011;3534;49.960;8.018;2023-07-13T12:05:25;2.73;;;1.20;;
6987;SDS011;3534;49.960;8.018;2023-07-13T12:07:52;3.97;;;1.20;;
6987;SDS011;3534;49.960;8.018;2023-07-13T12:10:21;2.97;;;0.93;;
6987;SDS011;3534;49.960;8.018;2023-07-13T12:12:51;1.77;;;0.80;;
6987;SDS011;3534;49.960;8.018;2023-07-13T12:15:19;3.53;;;1.33;;
6987;SDS011;3534;49.960;8.018;2023-07-13T12:17:47;3.87;;;1.30;;
6987;SDS011;3534;49.960;8.018;2023-07-13T12:20:17;2.80;;;0.90;;
6987;SDS011;3534;49.960;8.018;2023-07-13T12:22:48;2.73;;;1.17;;
6987;SDS011;3534;49.960;8.018;2023-07-13T12:25:16;1.70;;;1.03;;
6987;SDS011;3534;49.960;8.018;2023-07-13T12:27:45;2.83;;;1.37;;
6987;SDS011;3534;49.960;8.018;2023-07-13T12:30:26;3.10;;;0.97;;
6987;SDS011;3534;49.960;8.018;2023-07-13T12:32:56;6.07;;;1.30;;
6987;SDS011;3534;49.960;8.018;2023-07-13T12:35:29;2.90;;;1.00;;
6987;SDS011;3534;49.960;8.018;2023-07-13T12:38:00;1.43;;;0.90;;
6987;SDS011;3534;49.960;8.018;2023-07-13T12:40:28;2.10;;;0.80;;
6987;SDS011;3534;49.960;8.018;2023-07-13T12:43:00;0.90;;;0.60;;
6987;SDS011;3534;49.960;8.018;2023-07-13T12:45:30;3.90;;;1.07;;
6987;SDS011;3534;49.960;8.018;2023-07-13T12:47:58;2.00;;;1.00;;
6987;SDS011;3534;49.960;8.018;2023-07-13T12:50:36;2.30;;;1.30;;
6987;SDS011;3534;49.960;8.018;2023-07-13T12:53:09;1.40;;;1.10;;
6987;SDS011;3534;49.960;8.018;2023-07-13T12:55:41;5.70;;;0.90;;
6987;SDS011;3534;49.960;8.018;2023-07-13T12:58:09;1.73;;;0.70;;
6987;SDS011;3534;49.960;8.018;2023-07-13T13:00:48;1.93;;;1.13;;
6987;SDS011;3534;49.960;8.018;2023-07-13T13:03:19;4.90;;;1.00;;
6987;SDS011;3534;49.960;8.018;2023-07-13T13:05:56;2.60;;;1.77;;
6987;SDS011;3534;49.960;8.018;2023-07-13T13:08:24;0.93;;;0.80;;
6987;SDS011;3534;49.960;8.018;2023-07-13T13:10:51;4.17;;;1.00;;
6987;SDS011;3534;49.960;8.018;2023-07-13T13:13:18;3.20;;;1.43;;
6987;SDS011;3534;49.960;8.018;2023-07-13T13:15:46;4.50;;;1.20;;
6987;SDS011;3534;49.960;8.018;2023-07-13T13:18:15;7.07;;;1.17;;
6987;SDS011;3534;49.960;8.018;2023-07-13T13:20:43;3.93;;;1.03;;
6987;SDS011;3534;49.960;8.018;2023-07-13T13:23:10;4.73;;;1.80;;
6987;SDS011;3534;49.960;8.018;2023-07-13T13:25:39;1.33;;;1.03;;
6987;SDS011;3534;49.960;8.018;2023-07-13T13:28:08;3.90;;;1.00;;
6987;SDS011;3534;49.960;8.018;2023-07-13T13:30:40;4.10;;;1.30;;
6987;SDS011;3534;49.960;8.018;2023-07-13T13:33:09;2.43;;;0.90;;
6987;SDS011;3534;49.960;8.018;2023-07-13T13:35:38;2.60;;;1.00;;
6987;SDS011;3534;49.960;8.018;2023-07-13T13:38:09;1.63;;;1.00;;
6987;SDS011;3534;49.960;8.018;2023-07-13T13:40:39;3.47;;;0.93;;
6987;SDS011;3534;49.960;8.018;2023-07-13T13:43:11;4.50;;;1.00;;
6987;SDS011;3534;49.960;8.018;2023-07-13T13:45:41;2.70;;;0.70;;
6987;SDS011;3534;49.960;8.018;2023-07-13T13:48:12;1.23;;;0.70;;
6987;SDS011;3534;49.960;8.018;2023-07-13T13:50:41;1.40;;;1.03;;
6987;SDS011;3534;49.960;8.018;2023-07-13T13:53:09;2.20;;;1.20;;
6987;SDS011;3534;49.960;8.018;2023-07-13T13:55:37;4.30;;;1.03;;
6987;SDS011;3534;49.960;8.018;2023-07-13T13:58:06;3.00;;;1.00;;
6987;SDS011;3534;49.960;8.018;2023-07-13T14:00:33;11.43;;;1.20;;
6987;SDS011;3534;49.960;8.018;2023-07-13T14:03:01;2.80;;;1.00;;
6987;SDS011;3534;49.960;8.018;2023-07-13T14:05:29;6.03;;;1.10;;
6987;SDS011;3534;49.960;8.018;2023-07-13T14:07:56;2.03;;;0.97;;
6987;SDS011;3534;49.960;8.018;2023-07-13T14:10:24;4.50;;;1.17;;
6987;SDS011;3534;49.960;8.018;2023-07-13T14:12:53;4.90;;;1.23;;
6987;SDS011;3534;49.960;8.018;2023-07-13T14:15:23;1.70;;;1.07;;
6987;SDS011;3534;49.960;8.018;2023-07-13T14:17:50;2.37;;;1.07;;
6987;SDS011;3534;49.960;8.018;2023-07-13T14:20:18;2.20;;;0.73;;
6987;SDS011;3534;49.960;8.018;2023-07-13T14:22:48;1.60;;;1.00;;
6987;SDS011;3534;49.960;8.018;2023-07-13T14:25:16;1.47;;;1.10;;
6987;SDS011;3534;49.960;8.018;2023-07-13T14:27:44;3.63;;;1.20;;
6987;SDS011;3534;49.960;8.018;2023-07-13T14:30:12;2.07;;;1.10;;
6987;SDS011;3534;49.960;8.018;2023-07-13T14:32:40;2.40;;;0.90;;
6987;SDS011;3534;49.960;8.018;2023-07-13T14:35:07;1.20;;;0.90;;
6987;SDS011;3534;49.960;8.018;2023-07-13T14:37:36;4.63;;;1.47;;
6987;SDS011;3534;49.960;8.018;2023-07-13T14:40:08;3.73;;;1.10;;
6987;SDS011;3534;49.960;8.018;2023-07-13T14:42:39;3.70;;;1.43;;
6987;SDS011;3534;49.960;8.018;2023-07-13T14:45:11;3.87;;;1.30;;
6987;SDS011;3534;49.960;8.018;2023-07-13T14:47:39;2.33;;;1.03;;
6987;SDS011;3534;49.960;8.018;2023-07-13T14:50:11;2.77;;;1.33;;
6987;SDS011;3534;49.960;8.018;2023-07-13T14:52:41;4.43;;;0.90;;
6987;SDS011;3534;49.960;8.018;2023-07-13T14:55:11;5.03;;;0.93;;
6987;SDS011;3534;49.960;8.018;2023-07-13T14:57:38;2.03;;;1.00;;
6987;SDS011;3534;49.960;8.018;2023-07-13T15:00:07;1.97;;;1.30;;
6987;SDS011;3534;49.960;8.018;2023-07-13T15:02:40;4.73;;;1.27;;
6987;SDS011;3534;49.960;8.018;2023-07-13T15:05:12;3.10;;;1.47;;
6987;SDS011;3534;49.960;8.018;2023-07-13T15:07:40;3.37;;;1.00;;
6987;SDS011;3534;49.960;8.018;2023-07-13T15:12:42;2.33;;;1.10;;
6987;SDS011;3534;49.960;8.018;2023-07-13T15:15:09;7.30;;;1.10;;
6987;SDS011;3534;49.960;8.018;2023-07-13T15:17:36;3.33;;;1.50;;
6987;SDS011;3534;49.960;8.018;2023-07-13T15:20:06;1.53;;;1.03;;
6987;SDS011;3534;49.960;8.018;2023-07-13T15:22:43;2.93;;;1.03;;
6987;SDS011;3534;49.960;8.018;2023-07-13T15:25:11;1.73;;;0.87;;
6987;SDS011;3534;49.960;8.018;2023-07-13T15:27:44;2.77;;;0.70;;
6987;SDS011;3534;49.960;8.018;2023-07-13T15:30:11;1.80;;;0.80;;
6987;SDS011;3534;49.960;8.018;2023-07-13T15:32:40;1.57;;;1.10;;
6987;SDS011;3534;49.960;8.018;2023-07-13T15:35:12;1.00;;;0.83;;